createdAt,value
2022-08-17T00:04:19.416Z,9.50
2022-08-17T00:09:23.745Z,9.20
2022-08-17T00:14:26.550Z,9.30
2022-08-17T00:19:29.582Z,10.75
2022-08-17T00:24:33.749Z,9.50
2022-08-17T00:29:36.561Z,10.40
2022-08-17T00:34:39.619Z,10.23
2022-08-17T00:39:43.830Z,10.60
2022-08-17T00:44:47.317Z,10.43
2022-08-17T00:49:50.162Z,10.50
2022-08-17T00:54:56.696Z,9.85
2022-08-17T01:00:03.790Z,10.25
2022-08-17T01:05:08.597Z,10.13
2022-08-17T01:10:59.084Z,9.90
2022-08-17T01:15:39.925Z,9.85
2022-08-17T01:20:50.442Z,10.20
2022-08-17T01:25:57.185Z,11.30
2022-08-17T01:31:02.775Z,10.85
2022-08-17T01:36:07.113Z,11.97
2022-08-17T01:41:15.582Z,11.17
2022-08-17T01:46:23.615Z,11.00
2022-08-17T01:51:29.342Z,11.70
2022-08-17T01:56:35.742Z,11.60
2022-08-17T02:01:39.015Z,10.90
2022-08-17T02:06:52.568Z,11.05
2022-08-17T02:12:37.094Z,11.23
2022-08-17T02:17:23.738Z,10.90
2022-08-17T02:22:26.660Z,11.10
2022-08-17T02:27:31.538Z,10.40
2022-08-17T02:32:34.495Z,10.40
2022-08-17T02:37:37.765Z,10.02
2022-08-17T02:42:44.022Z,10.93
2022-08-17T02:47:47.831Z,11.37
2022-08-17T02:53:05.917Z,13.10
2022-08-17T02:58:12.191Z,11.43
2022-08-17T03:03:18.836Z,11.20
2022-08-17T03:08:23.360Z,11.05
2022-08-17T03:13:27.806Z,11.82
2022-08-17T03:18:30.637Z,12.50
2022-08-17T03:23:33.954Z,12.63
2022-08-17T03:28:39.096Z,11.32
2022-08-17T03:33:41.902Z,10.90
2022-08-17T03:38:45.111Z,11.53
2022-08-17T03:43:49.329Z,12.65
2022-08-17T03:49:09.726Z,14.82
2022-08-17T03:54:30.984Z,14.73
2022-08-17T03:59:36.097Z,13.13
2022-08-17T04:04:40.527Z,13.30
2022-08-17T04:09:44.206Z,14.60
2022-08-17T04:14:53.540Z,15.43
2022-08-17T04:19:58.051Z,14.02
2022-08-17T04:25:01.275Z,15.35
2022-08-17T04:30:07.990Z,16.23
2022-08-17T04:35:11.321Z,18.10
2022-08-17T04:40:28.317Z,17.15
2022-08-17T04:45:32.830Z,17.70
2022-08-17T04:50:36.194Z,16.83
2022-08-17T04:55:39.043Z,18.45
2022-08-17T05:00:43.451Z,17.30
2022-08-17T05:05:49.412Z,15.73
2022-08-17T05:10:52.402Z,17.40
2022-08-17T05:15:58.697Z,18.05
2022-08-17T05:21:01.655Z,17.97
2022-08-17T05:26:05.223Z,19.50
2022-08-17T05:31:12.272Z,19.23
2022-08-17T05:36:41.862Z,19.63
2022-08-17T05:41:39.130Z,19.08
2022-08-17T05:46:49.185Z,18.73
2022-08-17T05:52:13.691Z,18.37
2022-08-17T05:57:43.554Z,18.33
2022-08-17T06:03:19.714Z,18.98
2022-08-17T06:08:33.258Z,20.83
2022-08-17T06:13:50.883Z,19.20
2022-08-17T06:19:01.295Z,19.52
2022-08-17T06:24:08.464Z,15.10
2022-08-17T06:29:21.048Z,19.37
2022-08-17T06:34:25.390Z,18.88
2022-08-17T06:39:36.311Z,17.65
2022-08-17T06:44:51.105Z,18.43
2022-08-17T06:50:03.742Z,18.93
2022-08-17T06:55:09.446Z,17.30
2022-08-17T07:00:24.221Z,16.73
2022-08-17T07:05:34.737Z,14.97
2022-08-17T07:10:42.602Z,14.07
2022-08-17T07:15:47.153Z,12.32
2022-08-17T07:20:55.940Z,12.90
2022-08-17T07:26:05.518Z,11.38
2022-08-17T07:31:13.289Z,11.43
2022-08-17T07:36:29.952Z,10.67
2022-08-17T07:41:57.335Z,10.30
2022-08-17T07:47:19.707Z,10.60
2022-08-17T07:52:51.440Z,11.48
2022-08-17T07:57:57.358Z,11.03
2022-08-17T08:03:13.416Z,11.27
2022-08-17T08:08:26.924Z,11.13
2022-08-17T08:13:32.222Z,10.23
2022-08-17T08:18:53.387Z,10.02
2022-08-17T08:24:10.887Z,10.15
2022-08-17T08:29:23.660Z,10.33
2022-08-17T08:34:58.606Z,10.33
2022-08-17T08:40:03.835Z,10.18
2022-08-17T08:45:14.721Z,9.70
2022-08-17T08:50:38.265Z,9.90
2022-08-17T08:55:53.024Z,9.48
2022-08-17T09:00:59.262Z,9.15
2022-08-17T09:06:33.408Z,9.13
2022-08-17T09:12:02.081Z,9.48
2022-08-17T09:17:12.661Z,9.07
2022-08-17T09:22:31.410Z,8.33
2022-08-17T09:27:47.658Z,8.60
2022-08-17T09:32:55.403Z,8.07
2022-08-17T09:38:06.437Z,7.90
2022-08-17T09:43:18.710Z,7.93
2022-08-17T09:48:28.551Z,7.78
2022-08-17T09:53:32.428Z,7.70
2022-08-17T09:58:51.026Z,7.87
2022-08-17T10:04:20.330Z,8.40
2022-08-17T10:09:45.607Z,7.60
2022-08-17T10:15:08.197Z,8.60
2022-08-17T10:20:16.523Z,7.50
2022-08-17T10:25:54.261Z,7.25
2022-08-17T10:31:34.131Z,7.63
2022-08-17T10:36:39.079Z,7.50
2022-08-17T10:41:46.701Z,6.72
2022-08-17T10:47:07.119Z,6.75
2022-08-17T10:52:43.056Z,7.30
2022-08-17T10:57:47.132Z,6.90
2022-08-17T11:02:53.523Z,7.20
2022-08-17T11:08:15.508Z,7.00
2022-08-17T11:13:33.948Z,7.00
2022-08-17T11:18:57.749Z,6.72
2022-08-17T11:24:14.640Z,7.20
2022-08-17T11:29:26.611Z,6.27
2022-08-17T11:34:34.602Z,6.57
2022-08-17T11:39:55.803Z,6.57
2022-08-17T11:45:04.298Z,6.17
2022-08-17T11:50:43.971Z,5.90
2022-08-17T11:56:04.637Z,6.10
2022-08-17T12:01:09.651Z,6.03
2022-08-17T12:06:32.081Z,5.93
2022-08-17T12:11:58.789Z,5.88
2022-08-17T12:17:09.156Z,5.90
2022-08-17T12:22:18.881Z,6.03
2022-08-17T12:27:47.644Z,5.90
2022-08-17T12:32:51.047Z,5.57
2022-08-17T12:37:57.593Z,5.90
2022-08-17T12:43:03.192Z,5.55
2022-08-17T12:48:09.325Z,6.03
2022-08-17T12:53:15.904Z,6.10
2022-08-17T12:58:22.153Z,5.33
2022-08-17T13:03:36.399Z,5.45
2022-08-17T13:08:42.862Z,5.35
2022-08-17T13:13:49.173Z,5.50
2022-08-17T13:18:55.519Z,5.43
2022-08-17T13:24:04.478Z,4.97
2022-08-17T13:29:09.604Z,5.60
2022-08-17T13:34:31.850Z,5.00
2022-08-17T13:39:42.730Z,4.70
2022-08-17T13:44:45.677Z,5.77
2022-08-17T13:49:49.647Z,5.63
2022-08-17T13:54:55.661Z,5.25
2022-08-17T14:00:10.978Z,5.18
2022-08-17T14:05:13.825Z,5.67
2022-08-17T14:10:19.929Z,5.90
2022-08-17T14:15:55.102Z,6.00
2022-08-17T14:20:49.613Z,6.30
2022-08-17T14:25:53.833Z,6.00
2022-08-17T14:30:56.641Z,8.15
2022-08-17T14:36:00.126Z,6.17
2022-08-17T14:41:05.410Z,6.20
2022-08-17T14:46:08.274Z,5.97
2022-08-17T14:51:11.950Z,5.85
2022-08-17T14:56:16.185Z,5.90
2022-08-17T15:01:21.679Z,6.28
2022-08-17T15:06:25.034Z,5.53
2022-08-17T15:11:29.379Z,5.90
2022-08-17T15:16:35.978Z,6.20
2022-08-17T15:21:38.802Z,6.32
2022-08-17T15:26:43.502Z,6.20
2022-08-17T15:31:46.411Z,6.10
2022-08-17T15:36:49.750Z,6.15
2022-08-17T15:41:58.354Z,6.50
2022-08-17T15:47:01.697Z,6.30
2022-08-17T15:52:16.756Z,7.03
2022-08-17T15:57:21.363Z,7.00
2022-08-17T16:03:46.253Z,7.20
2022-08-17T16:07:52.078Z,7.50
2022-08-17T16:12:58.193Z,7.57
2022-08-17T16:18:01.064Z,7.23
2022-08-17T16:23:04.162Z,7.30
2022-08-17T16:28:08.871Z,7.47
2022-08-17T16:33:12.428Z,7.70
2022-08-17T16:38:15.226Z,7.00
2022-08-17T16:43:20.178Z,8.00
2022-08-17T16:48:23.363Z,7.00
2022-08-17T16:53:26.738Z,7.37
2022-08-17T16:58:30.972Z,6.53
2022-08-17T17:03:34.061Z,6.50
2022-08-17T17:08:44.609Z,6.20
2022-08-17T17:13:54.753Z,6.70
2022-08-17T17:19:13.873Z,6.20
2022-08-17T17:24:22.823Z,6.28
2022-08-17T17:29:48.822Z,6.40
2022-08-17T17:34:58.745Z,6.55
2022-08-17T17:40:06.724Z,6.70
2022-08-17T17:45:18.154Z,7.00
2022-08-17T17:50:27.571Z,7.15
2022-08-17T17:55:40.544Z,6.90
2022-08-17T18:00:53.187Z,7.20
2022-08-17T18:06:14.899Z,6.90
2022-08-17T18:11:35.240Z,7.03
2022-08-17T18:16:42.638Z,7.18
2022-08-17T18:21:52.138Z,7.37
2022-08-17T18:26:57.845Z,7.00
2022-08-17T18:32:33.554Z,7.30
2022-08-17T18:37:40.701Z,7.40
2022-08-17T18:42:46.322Z,7.38
2022-08-17T18:47:56.517Z,7.50
2022-08-17T18:53:26.691Z,8.33
2022-08-17T18:58:33.048Z,7.40
2022-08-17T19:03:44.212Z,7.70
2022-08-17T19:08:47.072Z,7.60
2022-08-17T19:13:56.826Z,8.33
2022-08-17T19:19:10.256Z,7.82
2022-08-17T19:24:19.399Z,7.40
2022-08-17T19:29:27.923Z,8.10
2022-08-17T19:34:35.637Z,8.00
2022-08-17T19:39:48.058Z,8.20
2022-08-17T19:45:02.843Z,8.67
2022-08-17T19:50:13.565Z,8.00
2022-08-17T19:55:24.419Z,8.35
2022-08-17T20:00:27.513Z,8.25
2022-08-17T20:06:01.328Z,8.50
2022-08-17T20:11:03.743Z,7.80
2022-08-17T20:16:07.714Z,8.45
2022-08-17T20:21:19.730Z,8.50
2022-08-17T20:26:28.713Z,9.20
2022-08-17T20:31:47.200Z,8.23
2022-08-17T20:37:03.112Z,8.63
2022-08-17T20:42:12.527Z,8.40
2022-08-17T20:47:26.977Z,9.00
2022-08-17T20:52:48.920Z,8.50
2022-08-17T20:57:52.082Z,8.37
2022-08-17T21:03:50.943Z,8.40
2022-08-17T21:08:59.329Z,8.40
2022-08-17T21:14:10.169Z,8.70
2022-08-17T21:19:30.924Z,8.82
2022-08-17T21:24:49.566Z,8.98
2022-08-17T21:30:12.251Z,9.13
2022-08-17T21:35:31.031Z,8.77
2022-08-17T21:40:35.457Z,8.80
2022-08-17T21:45:42.945Z,9.13
2022-08-17T21:50:57.690Z,9.50
2022-08-17T21:56:02.199Z,9.45
2022-08-17T22:01:23.469Z,9.38
2022-08-17T22:06:29.695Z,9.50
2022-08-17T22:11:49.434Z,9.65
2022-08-17T22:17:07.749Z,9.75
2022-08-17T22:22:22.492Z,10.37
2022-08-17T22:27:49.865Z,9.87
2022-08-17T22:32:52.791Z,10.35
2022-08-17T22:37:55.875Z,10.30
2022-08-17T22:43:03.036Z,10.43
2022-08-17T22:48:06.325Z,10.68
2022-08-17T22:53:34.344Z,10.27
2022-08-17T22:59:02.401Z,10.83
2022-08-17T23:04:07.875Z,11.05
2022-08-17T23:09:10.789Z,11.10
2022-08-17T23:14:16.314Z,11.60
2022-08-17T23:19:22.183Z,11.60
2022-08-17T23:24:28.800Z,11.75
2022-08-17T23:29:33.041Z,11.57
2022-08-17T23:34:38.643Z,11.93
2022-08-17T23:39:41.656Z,12.15
2022-08-17T23:44:45.914Z,12.15
2022-08-17T23:49:48.720Z,13.13
2022-08-17T23:54:57.521Z,13.05
